Allensburg, Ohio
Current Conditions -  °F | °C
As of 9:54 PM on Friday 28 Nov 2014 (Local Time) from KILN Reporting Station
Clear Clear  
Wind Chill: 22°   Ceiling: Unl
Heat Index: 29°   Visibility: 10mi
Dew Point: 18°   Wind: 7mph
Humidity: 64%   Direction: 160°SSE
Pressure: 30.12"   Gusts: NA
Location:  39.1546°N, 83.569°W
Report Text: KILN 290254Z AUTO 16006KT 10SM CLR M02/M08 A3012 RMK AO2 SLP229 T10171078 56014
Loading
Personal Weather Stations






























Interactive Weather Map New forecast layout! Learn more

10-Day Weather Forecast

Advertisements
Track Severe Weather on mobile